sensor_id;sensor_type;location;lat;lon;timestamp;pressure;altitude;pressure_sealevel;temperature;humidity
46534;BME280;32260;52.008;4.752;2022-10-22T00:01:42;100872.38;;;15.15;73.51
46534;BME280;32260;52.008;4.752;2022-10-22T00:04:08;100870.47;;;15.17;73.48
46534;BME280;32260;52.008;4.752;2022-10-22T00:06:34;100872.13;;;15.22;73.60
46534;BME280;32260;52.008;4.752;2022-10-22T00:09:00;100868.50;;;15.23;73.80
46534;BME280;32260;52.008;4.752;2022-10-22T00:11:26;100876.50;;;15.23;74.00
46534;BME280;32260;52.008;4.752;2022-10-22T00:13:52;100877.47;;;15.22;73.85
46534;BME280;32260;52.008;4.752;2022-10-22T00:16:18;100874.03;;;15.18;74.11
46534;BME280;32260;52.008;4.752;2022-10-22T00:18:45;100867.88;;;15.16;74.26
46534;BME280;32260;52.008;4.752;2022-10-22T00:21:11;100873.22;;;15.16;74.67
46534;BME280;32260;52.008;4.752;2022-10-22T00:23:40;100872.38;;;15.15;74.96
46534;BME280;32260;52.008;4.752;2022-10-22T00:26:07;100880.38;;;15.15;75.15
46534;BME280;32260;52.008;4.752;2022-10-22T00:28:33;100881.16;;;15.17;75.05
46534;BME280;32260;52.008;4.752;2022-10-22T00:31:00;100877.69;;;15.15;75.85
46534;BME280;32260;52.008;4.752;2022-10-22T00:33:27;100876.72;;;15.18;75.85
46534;BME280;32260;52.008;4.752;2022-10-22T00:35:54;100878.25;;;15.24;75.72
46534;BME280;32260;52.008;4.752;2022-10-22T00:38:20;100879.06;;;15.26;75.92
46534;BME280;32260;52.008;4.752;2022-10-22T00:40:47;100872.81;;;15.27;75.70
46534;BME280;32260;52.008;4.752;2022-10-22T00:43:15;100881.56;;;15.30;76.16
46534;BME280;32260;52.008;4.752;2022-10-22T00:45:42;100881.50;;;15.32;75.97
46534;BME280;32260;52.008;4.752;2022-10-22T00:50:54;100890.94;;;15.41;76.33
46534;BME280;32260;52.008;4.752;2022-10-22T00:53:25;100887.28;;;15.43;76.19
46534;BME280;32260;52.008;4.752;2022-10-22T00:55:53;100892.44;;;15.48;76.44
46534;BME280;32260;52.008;4.752;2022-10-22T00:58:22;100891.31;;;15.53;76.21
46534;BME280;32260;52.008;4.752;2022-10-22T01:00:49;100882.38;;;15.55;76.38
46534;BME280;32260;52.008;4.752;2022-10-22T01:03:16;100878.63;;;15.60;76.28
46534;BME280;32260;52.008;4.752;2022-10-22T01:06:00;100883.56;;;15.69;76.14
46534;BME280;32260;52.008;4.752;2022-10-22T01:14:09;100882.31;;;15.78;75.57
46534;BME280;32260;52.008;4.752;2022-10-22T01:17:01;100892.00;;;15.81;75.39
46534;BME280;32260;52.008;4.752;2022-10-22T01:19:53;100889.47;;;15.78;75.58
46534;BME280;32260;52.008;4.752;2022-10-22T01:30:50;100904.75;;;15.74;75.17
46534;BME280;32260;52.008;4.752;2022-10-22T01:33:20;100898.59;;;15.72;75.35
46534;BME280;32260;52.008;4.752;2022-10-22T01:35:47;100906.75;;;15.69;75.21
46534;BME280;32260;52.008;4.752;2022-10-22T01:38:16;100904.06;;;15.69;75.65
46534;BME280;32260;52.008;4.752;2022-10-22T01:40:45;100900.72;;;15.64;75.30
46534;BME280;32260;52.008;4.752;2022-10-22T01:43:12;100898.06;;;15.64;75.24
46534;BME280;32260;52.008;4.752;2022-10-22T01:45:46;100890.03;;;15.64;75.15
46534;BME280;32260;52.008;4.752;2022-10-22T01:48:36;100899.84;;;15.63;75.22
46534;BME280;32260;52.008;4.752;2022-10-22T01:51:29;100892.06;;;15.57;75.13
46534;BME280;32260;52.008;4.752;2022-10-22T02:02:34;100883.78;;;15.41;75.37
46534;BME280;32260;52.008;4.752;2022-10-22T02:05:14;100885.53;;;15.42;75.18
46534;BME280;32260;52.008;4.752;2022-10-22T02:07:53;100883.75;;;15.43;75.04
46534;BME280;32260;52.008;4.752;2022-10-22T02:10:21;100878.69;;;15.35;75.40
46534;BME280;32260;52.008;4.752;2022-10-22T02:12:51;100886.72;;;15.35;75.06
46534;BME280;32260;52.008;4.752;2022-10-22T02:15:19;100884.09;;;15.33;75.42
46534;BME280;32260;52.008;4.752;2022-10-22T02:17:47;100886.78;;;15.33;75.31
46534;BME280;32260;52.008;4.752;2022-10-22T02:20:19;100890.34;;;15.34;75.44
46534;BME280;32260;52.008;4.752;2022-10-22T02:22:48;100885.94;;;15.31;75.45
46534;BME280;32260;52.008;4.752;2022-10-22T02:25:14;100886.03;;;15.30;75.24
46534;BME280;32260;52.008;4.752;2022-10-22T02:27:48;100883.50;;;15.27;75.42
46534;BME280;32260;52.008;4.752;2022-10-22T02:30:19;100896.84;;;15.27;75.44
46534;BME280;32260;52.008;4.752;2022-10-22T02:35:50;100891.53;;;15.25;75.59
46534;BME280;32260;52.008;4.752;2022-10-22T02:38:17;100888.75;;;15.28;75.33
46534;BME280;32260;52.008;4.752;2022-10-22T02:40:44;100898.59;;;15.28;75.56
46534;BME280;32260;52.008;4.752;2022-10-22T02:43:11;100898.44;;;15.31;75.57
46534;BME280;32260;52.008;4.752;2022-10-22T02:45:37;100895.69;;;15.34;75.46
46534;BME280;32260;52.008;4.752;2022-10-22T02:48:04;100888.28;;;15.41;75.45
46534;BME280;32260;52.008;4.752;2022-10-22T02:50:30;100894.44;;;15.43;75.34
46534;BME280;32260;52.008;4.752;2022-10-22T02:52:56;100895.31;;;15.43;75.85
46534;BME280;32260;52.008;4.752;2022-10-22T02:55:22;100896.91;;;15.47;75.85
46534;BME280;32260;52.008;4.752;2022-10-22T02:57:48;100902.94;;;15.52;75.53
46534;BME280;32260;52.008;4.752;2022-10-22T03:00:15;100893.22;;;15.51;75.61
46534;BME280;32260;52.008;4.752;2022-10-22T03:02:41;100890.53;;;15.51;75.75
46534;BME280;32260;52.008;4.752;2022-10-22T03:05:07;100892.25;;;15.52;75.32
46534;BME280;32260;52.008;4.752;2022-10-22T03:07:33;100893.22;;;15.51;75.76
46534;BME280;32260;52.008;4.752;2022-10-22T03:10:00;100891.41;;;15.52;75.62
46534;BME280;32260;52.008;4.752;2022-10-22T03:12:26;100901.22;;;15.51;75.50
46534;BME280;32260;52.008;4.752;2022-10-22T03:14:52;100902.22;;;15.49;75.18
46534;BME280;32260;52.008;4.752;2022-10-22T03:17:18;100904.00;;;15.48;75.10
46534;BME280;32260;52.008;4.752;2022-10-22T03:19:44;100901.31;;;15.48;75.02
46534;BME280;32260;52.008;4.752;2022-10-22T03:22:20;100902.22;;;15.49;75.06
46534;BME280;32260;52.008;4.752;2022-10-22T03:24:51;100907.66;;;15.46;75.32
46534;BME280;32260;52.008;4.752;2022-10-22T03:27:20;100907.78;;;15.43;75.27
46534;BME280;32260;52.008;4.752;2022-10-22T03:29:48;100910.41;;;15.44;75.29
46534;BME280;32260;52.008;4.752;2022-10-22T03:32:15;100908.56;;;15.45;75.12
46534;BME280;32260;52.008;4.752;2022-10-22T03:34:42;100909.47;;;15.45;75.17
46534;BME280;32260;52.008;4.752;2022-10-22T03:37:08;100907.66;;;15.46;75.40
46534;BME280;32260;52.008;4.752;2022-10-22T03:39:35;100908.41;;;15.49;75.24
46534;BME280;32260;52.008;4.752;2022-10-22T03:42:02;100911.00;;;15.51;75.39
46534;BME280;32260;52.008;4.752;2022-10-22T03:44:29;100910.00;;;15.53;75.22
46534;BME280;32260;52.008;4.752;2022-10-22T03:46:55;100910.75;;;15.57;75.43
46534;BME280;32260;52.008;4.752;2022-10-22T03:49:21;100917.00;;;15.58;75.43
46534;BME280;32260;52.008;4.752;2022-10-22T03:51:47;100922.19;;;15.61;75.58
46534;BME280;32260;52.008;4.752;2022-10-22T03:54:15;100921.22;;;15.63;75.39
46534;BME280;32260;52.008;4.752;2022-10-22T03:56:41;100921.13;;;15.65;75.36
46534;BME280;32260;52.008;4.752;2022-10-22T03:59:07;100919.28;;;15.67;75.62
46534;BME280;32260;52.008;4.752;2022-10-22T04:01:33;100923.69;;;15.68;75.53
46534;BME280;32260;52.008;4.752;2022-10-22T04:04:00;100917.44;;;15.69;75.53
46534;BME280;32260;52.008;4.752;2022-10-22T04:06:27;100916.47;;;15.70;75.46
46534;BME280;32260;52.008;4.752;2022-10-22T04:08:54;100919.09;;;15.72;75.28
46534;BME280;32260;52.008;4.752;2022-10-22T04:11:20;100930.66;;;15.72;75.45
46534;BME280;32260;52.008;4.752;2022-10-22T04:13:46;100927.91;;;15.74;75.30
46534;BME280;32260;52.008;4.752;2022-10-22T04:16:14;100927.81;;;15.77;75.27
46534;BME280;32260;52.008;4.752;2022-10-22T04:18:42;100933.00;;;15.80;75.38
46534;BME280;32260;52.008;4.752;2022-10-22T04:21:09;100934.75;;;15.81;75.01
46534;BME280;32260;52.008;4.752;2022-10-22T04:23:36;100932.97;;;15.81;75.27
46534;BME280;32260;52.008;4.752;2022-10-22T04:26:06;100924.94;;;15.81;75.04
46534;BME280;32260;52.008;4.752;2022-10-22T04:28:35;100933.00;;;15.80;74.71
46534;BME280;32260;52.008;4.752;2022-10-22T04:31:10;100935.63;;;15.81;74.82
46534;BME280;32260;52.008;4.752;2022-10-22T04:33:37;100941.09;;;15.78;74.96
46534;BME280;32260;52.008;4.752;2022-10-22T04:36:09;100932.97;;;15.81;74.98
46534;BME280;32260;52.008;4.752;2022-10-22T04:38:36;100947.44;;;15.76;74.66
46534;BME280;32260;52.008;4.752;2022-10-22T04:41:09;100948.19;;;15.79;74.81
46534;BME280;32260;52.008;4.752;2022-10-22T04:43:36;100945.75;;;15.73;75.02
46534;BME280;32260;52.008;4.752;2022-10-22T04:46:02;100943.09;;;15.73;74.88
46534;BME280;32260;52.008;4.752;2022-10-22T04:48:28;100948.50;;;15.72;74.91
46534;BME280;32260;52.008;4.752;2022-10-22T04:50:57;100950.25;;;15.73;74.65
46534;BME280;32260;52.008;4.752;2022-10-22T04:53:23;100949.41;;;15.71;74.81
46534;BME280;32260;52.008;4.752;2022-10-22T04:55:49;100954.81;;;15.69;74.96
46534;BME280;32260;52.008;4.752;2022-10-22T04:58:15;100956.53;;;15.70;74.71
46534;BME280;32260;52.008;4.752;2022-10-22T05:00:41;100956.53;;;15.70;74.93
46534;BME280;32260;52.008;4.752;2022-10-22T05:03:07;100962.78;;;15.71;74.55
46534;BME280;32260;52.008;4.752;2022-10-22T05:05:33;100964.69;;;15.67;74.86
46534;BME280;32260;52.008;4.752;2022-10-22T05:07:59;100963.19;;;15.60;74.71
46534;BME280;32260;52.008;4.752;2022-10-22T05:10:25;100965.84;;;15.60;74.80
46534;BME280;32260;52.008;4.752;2022-10-22T05:12:51;100969.59;;;15.56;74.48
46534;BME280;32260;52.008;4.752;2022-10-22T05:15:17;100972.34;;;15.52;74.80
46534;BME280;32260;52.008;4.752;2022-10-22T05:17:43;100960.97;;;15.49;74.54
46534;BME280;32260;52.008;4.752;2022-10-22T05:20:09;100965.53;;;15.45;74.94
46534;BME280;32260;52.008;4.752;2022-10-22T05:22:35;100962.91;;;15.44;75.19
46534;BME280;32260;52.008;4.752;2022-10-22T05:25:02;100965.53;;;15.45;75.11
46534;BME280;32260;52.008;4.752;2022-10-22T05:27:28;100967.25;;;15.46;75.05
46534;BME280;32260;52.008;4.752;2022-10-22T05:29:54;100970.97;;;15.42;75.01
46534;BME280;32260;52.008;4.752;2022-10-22T05:32:20;100960.44;;;15.39;75.28
46534;BME280;32260;52.008;4.752;2022-10-22T05:34:46;100963.03;;;15.41;75.18
46534;BME280;32260;52.008;4.752;2022-10-22T05:37:12;100975.56;;;15.39;74.90
46534;BME280;32260;52.008;4.752;2022-10-22T05:39:38;100971.34;;;15.33;74.80
46534;BME280;32260;52.008;4.752;2022-10-22T05:42:05;100983.78;;;15.34;75.09
46534;BME280;32260;52.008;4.752;2022-10-22T05:44:31;100980.38;;;15.29;75.00
46534;BME280;32260;52.008;4.752;2022-10-22T05:46:57;100980.38;;;15.29;74.91
46534;BME280;32260;52.008;4.752;2022-10-22T05:49:23;100979.69;;;15.24;75.01
46534;BME280;32260;52.008;4.752;2022-10-22T05:51:49;100980.59;;;15.23;75.15
46534;BME280;32260;52.008;4.752;2022-10-22T05:54:18;100987.69;;;15.24;75.01
46534;BME280;32260;52.008;4.752;2022-10-22T05:56:44;100992.34;;;15.18;74.89
46534;BME280;32260;52.008;4.752;2022-10-22T05:59:11;100992.41;;;15.17;74.91
46534;BME280;32260;52.008;4.752;2022-10-22T06:01:38;101000.34;;;15.18;74.98
46534;BME280;32260;52.008;4.752;2022-10-22T06:04:07;100994.91;;;15.22;74.86
46534;BME280;32260;52.008;4.752;2022-10-22T06:06:38;101001.09;;;15.22;75.15
46534;BME280;32260;52.008;4.752;2022-10-22T06:09:14;101011.63;;;15.27;75.23
46534;BME280;32260;52.008;4.752;2022-10-22T06:11:41;101005.44;;;15.25;75.33
46534;BME280;32260;52.008;4.752;2022-10-22T06:14:09;101013.47;;;15.25;75.16
46534;BME280;32260;52.008;4.752;2022-10-22T06:16:35;101016.94;;;15.27;75.23
46534;BME280;32260;52.008;4.752;2022-10-22T06:19:02;101016.94;;;15.27;75.12
46534;BME280;32260;52.008;4.752;2022-10-22T06:21:29;101016.03;;;15.28;75.08
46534;BME280;32260;52.008;4.752;2022-10-22T06:23:57;101022.28;;;15.27;74.81
46534;BME280;32260;52.008;4.752;2022-10-22T06:26:24;101020.38;;;15.30;75.15
46534;BME280;32260;52.008;4.752;2022-10-22T06:28:50;101033.59;;;15.33;74.96
46534;BME280;32260;52.008;4.752;2022-10-22T06:31:16;101029.84;;;15.39;75.16
46534;BME280;32260;52.008;4.752;2022-10-22T06:33:42;101036.81;;;15.43;74.92
46534;BME280;32260;52.008;4.752;2022-10-22T06:36:11;101047.25;;;15.49;75.14
46534;BME280;32260;52.008;4.752;2022-10-22T06:38:38;101041.78;;;15.52;75.05
46534;BME280;32260;52.008;4.752;2022-10-22T06:41:07;101043.31;;;15.60;74.87
46534;BME280;32260;52.008;4.752;2022-10-22T06:43:34;101044.06;;;15.63;74.99
46534;BME280;32260;52.008;4.752;2022-10-22T06:46:02;101042.97;;;15.69;74.85
46534;BME280;32260;52.008;4.752;2022-10-22T06:48:29;101042.09;;;15.68;74.79
46534;BME280;32260;52.008;4.752;2022-10-22T06:50:55;101048.31;;;15.69;75.03
46534;BME280;32260;52.008;4.752;2022-10-22T06:53:21;101055.50;;;15.67;74.85
46534;BME280;32260;52.008;4.752;2022-10-22T06:55:47;101059.56;;;15.77;74.99
46534;BME280;32260;52.008;4.752;2022-10-22T06:58:13;101057.72;;;15.79;74.93
46534;BME280;32260;52.008;4.752;2022-10-22T07:00:39;101056.59;;;15.87;75.17
46534;BME280;32260;52.008;4.752;2022-10-22T07:03:05;101058.25;;;15.89;74.92
46534;BME280;32260;52.008;4.752;2022-10-22T07:05:33;101072.94;;;16.01;74.71
46534;BME280;32260;52.008;4.752;2022-10-22T07:07:59;101067.31;;;16.09;74.66
46534;BME280;32260;52.008;4.752;2022-10-22T07:10:25;101078.00;;;16.09;74.61
46534;BME280;32260;52.008;4.752;2022-10-22T07:12:51;101082.97;;;16.18;74.05
46534;BME280;32260;52.008;4.752;2022-10-22T07:15:17;101092.66;;;16.21;73.95
46534;BME280;32260;52.008;4.752;2022-10-22T07:17:43;101088.69;;;16.31;73.81
46534;BME280;32260;52.008;4.752;2022-10-22T07:20:10;101104.47;;;16.37;73.36
46534;BME280;32260;52.008;4.752;2022-10-22T07:22:37;101099.78;;;16.44;73.66
46534;BME280;32260;52.008;4.752;2022-10-22T07:25:03;101107.59;;;16.48;72.89
46534;BME280;32260;52.008;4.752;2022-10-22T07:27:30;101109.22;;;16.53;72.86
46534;BME280;32260;52.008;4.752;2022-10-22T07:29:56;101109.03;;;16.57;73.30
46534;BME280;32260;52.008;4.752;2022-10-22T07:32:25;101112.34;;;16.64;72.98
46534;BME280;32260;52.008;4.752;2022-10-22T07:34:51;101120.38;;;16.64;73.20
46534;BME280;32260;52.008;4.752;2022-10-22T07:37:17;101118.50;;;16.66;72.73
46534;BME280;32260;52.008;4.752;2022-10-22T07:39:47;101116.69;;;16.66;72.26
46534;BME280;32260;52.008;4.752;2022-10-22T07:42:13;101132.59;;;16.70;72.15
46534;BME280;32260;52.008;4.752;2022-10-22T07:44:39;101136.09;;;16.72;72.39
46534;BME280;32260;52.008;4.752;2022-10-22T07:47:05;101136.84;;;16.75;71.99
46534;BME280;32260;52.008;4.752;2022-10-22T07:49:31;101128.66;;;16.78;72.28
46534;BME280;32260;52.008;4.752;2022-10-22T07:51:57;101142.88;;;16.80;71.86
46534;BME280;32260;52.008;4.752;2022-10-22T07:54:24;101148.03;;;16.85;72.26
46534;BME280;32260;52.008;4.752;2022-10-22T07:56:50;101146.91;;;16.91;72.08
46534;BME280;32260;52.008;4.752;2022-10-22T07:59:16;101145.19;;;16.90;72.15
46534;BME280;32260;52.008;4.752;2022-10-22T08:01:42;101148.56;;;16.95;71.83
46534;BME280;32260;52.008;4.752;2022-10-22T08:04:08;101160.28;;;16.91;71.33
46534;BME280;32260;52.008;4.752;2022-10-22T08:06:36;101161.72;;;17.00;71.54
46534;BME280;32260;52.008;4.752;2022-10-22T08:09:03;101169.47;;;17.07;71.02
46534;BME280;32260;52.008;4.752;2022-10-22T08:11:29;101170.31;;;17.08;70.64
46534;BME280;32260;52.008;4.752;2022-10-22T08:13:58;101163.22;;;17.07;70.47
46534;BME280;32260;52.008;4.752;2022-10-22T08:16:24;101179.09;;;17.11;70.35
46534;BME280;32260;52.008;4.752;2022-10-22T08:18:50;101183.38;;;17.16;70.59
46534;BME280;32260;52.008;4.752;2022-10-22T08:21:16;101180.66;;;17.17;70.52
46534;BME280;32260;52.008;4.752;2022-10-22T08:23:43;101184.25;;;17.16;70.21
46534;BME280;32260;52.008;4.752;2022-10-22T08:26:09;101183.69;;;17.30;70.79
46534;BME280;32260;52.008;4.752;2022-10-22T08:28:36;101188.22;;;17.28;70.48
46534;BME280;32260;52.008;4.752;2022-10-22T08:31:04;101182.75;;;17.31;70.50
46534;BME280;32260;52.008;4.752;2022-10-22T08:33:30;101194.88;;;17.40;70.61
46534;BME280;32260;52.008;4.752;2022-10-22T08:35:56;101192.94;;;17.43;70.11
46534;BME280;32260;52.008;4.752;2022-10-22T08:38:22;101200.81;;;17.46;70.17
46534;BME280;32260;52.008;4.752;2022-10-22T08:40:52;101203.22;;;17.53;70.15
46534;BME280;32260;52.008;4.752;2022-10-22T08:44:46;101210.06;;;17.60;69.36
46534;BME280;32260;52.008;4.752;2022-10-22T08:49:19;101216.28;;;17.60;69.77
46534;BME280;32260;52.008;4.752;2022-10-22T08:51:46;101223.28;;;17.65;69.50
46534;BME280;32260;52.008;4.752;2022-10-22T08:55:04;101212.44;;;17.87;68.69
46534;BME280;32260;52.008;4.752;2022-10-22T08:58:56;101222.47;;;17.83;68.29
46534;BME280;32260;52.008;4.752;2022-10-22T09:07:57;101225.13;;;18.04;68.09
46534;BME280;32260;52.008;4.752;2022-10-22T09:10:28;101245.84;;;18.00;67.90
46534;BME280;32260;52.008;4.752;2022-10-22T09:12:57;101233.38;;;17.99;67.89
46534;BME280;32260;52.008;4.752;2022-10-22T09:15:23;101244.72;;;18.06;67.85
46534;BME280;32260;52.008;4.752;2022-10-22T09:18:01;101243.72;;;18.08;67.57
46534;BME280;32260;52.008;4.752;2022-10-22T09:20:40;101250.44;;;17.98;66.67
46534;BME280;32260;52.008;4.752;2022-10-22T09:25:53;101258.75;;;17.90;66.92
46534;BME280;32260;52.008;4.752;2022-10-22T09:28:20;101261.19;;;17.97;67.14
46534;BME280;32260;52.008;4.752;2022-10-22T09:30:46;101267.56;;;17.94;67.53
46534;BME280;32260;52.008;4.752;2022-10-22T09:33:17;101260.59;;;17.90;67.82
46534;BME280;32260;52.008;4.752;2022-10-22T09:38:22;101270.53;;;18.08;67.36
46534;BME280;32260;52.008;4.752;2022-10-22T09:40:51;101272.84;;;18.16;67.47
46534;BME280;32260;52.008;4.752;2022-10-22T09:43:18;101273.66;;;18.18;67.33
46534;BME280;32260;52.008;4.752;2022-10-22T09:45:45;101280.16;;;18.33;66.84
46534;BME280;32260;52.008;4.752;2022-10-22T09:50:53;101285.44;;;18.35;66.27
46534;BME280;32260;52.008;4.752;2022-10-22T09:53:26;101279.31;;;18.52;66.21
46534;BME280;32260;52.008;4.752;2022-10-22T09:55:56;101284.16;;;18.43;65.81
46534;BME280;32260;52.008;4.752;2022-10-22T09:58:23;101285.88;;;18.45;65.84
46534;BME280;32260;52.008;4.752;2022-10-22T10:00:59;101300.78;;;18.52;65.80
46534;BME280;32260;52.008;4.752;2022-10-22T10:03:31;101289.16;;;18.51;65.89
46534;BME280;32260;52.008;4.752;2022-10-22T10:05:59;101300.31;;;18.61;65.42
46534;BME280;32260;52.008;4.752;2022-10-22T10:08:26;101300.03;;;18.67;65.00
46534;BME280;32260;52.008;4.752;2022-10-22T10:11:57;101291.50;;;18.78;65.65
46534;BME280;32260;52.008;4.752;2022-10-22T10:19:42;101307.66;;;19.15;64.28
46534;BME280;32260;52.008;4.752;2022-10-22T10:22:25;101323.41;;;19.22;64.03
46534;BME280;32260;52.008;4.752;2022-10-22T10:25:17;101335.09;;;19.21;62.77
46534;BME280;32260;52.008;4.752;2022-10-22T10:27:56;101321.38;;;19.28;63.03
46534;BME280;32260;52.008;4.752;2022-10-22T10:30:24;101327.75;;;19.25;62.59
46534;BME280;32260;52.008;4.752;2022-10-22T10:47:11;101349.53;;;19.38;61.87
46534;BME280;32260;52.008;4.752;2022-10-22T10:49:24;101348.56;;;19.58;61.24
46534;BME280;32260;52.008;4.752;2022-10-22T10:54:37;101358.38;;;19.59;60.06
46534;BME280;32260;52.008;4.752;2022-10-22T11:00:03;101348.56;;;19.58;60.27
46534;BME280;32260;52.008;4.752;2022-10-22T11:05:38;101349.78;;;19.51;60.31
46534;BME280;32260;52.008;4.752;2022-10-22T11:13:56;101361.56;;;20.02;59.02
46534;BME280;32260;52.008;4.752;2022-10-22T11:16:36;101359.84;;;20.19;58.89
46534;BME280;32260;52.008;4.752;2022-10-22T11:19:12;101359.53;;;20.25;58.50
46534;BME280;32260;52.008;4.752;2022-10-22T11:22:02;101356.84;;;20.25;56.85
46534;BME280;32260;52.008;4.752;2022-10-22T11:25:39;101353.03;;;20.29;55.75
46534;BME280;32260;52.008;4.752;2022-10-22T11:27:29;101367.75;;;20.22;57.09
46534;BME280;32260;52.008;4.752;2022-10-22T11:30:17;101363.72;;;20.13;57.42
46534;BME280;32260;52.008;4.752;2022-10-22T11:32:55;101369.19;;;19.94;55.86
46534;BME280;32260;52.008;4.752;2022-10-22T11:35:27;101365.78;;;19.91;55.10
46534;BME280;32260;52.008;4.752;2022-10-22T11:37:56;101387.50;;;19.86;56.58
46534;BME280;32260;52.008;4.752;2022-10-22T11:40:47;101386.56;;;19.87;56.14
46534;BME280;32260;52.008;4.752;2022-10-22T11:51:45;101383.22;;;19.82;56.52
46534;BME280;32260;52.008;4.752;2022-10-22T11:59:56;101383.66;;;20.27;55.58
46534;BME280;32260;52.008;4.752;2022-10-22T12:13:50;101381.13;;;20.92;53.48
46534;BME280;32260;52.008;4.752;2022-10-22T12:16:21;101376.88;;;21.20;53.59
46534;BME280;32260;52.008;4.752;2022-10-22T12:18:52;101384.41;;;21.29;52.66
46534;BME280;32260;52.008;4.752;2022-10-22T12:21:20;101375.97;;;21.36;51.62
46534;BME280;32260;52.008;4.752;2022-10-22T12:23:46;101382.50;;;21.31;51.26
46534;BME280;32260;52.008;4.752;2022-10-22T12:26:30;101377.31;;;21.28;51.85
46534;BME280;32260;52.008;4.752;2022-10-22T12:28:58;101380.69;;;21.32;52.18
46534;BME280;32260;52.008;4.752;2022-10-22T12:31:24;101383.91;;;21.23;51.75
46534;BME280;32260;52.008;4.752;2022-10-22T12:33:59;101385.91;;;21.19;52.16
46534;BME280;32260;52.008;4.752;2022-10-22T12:36:26;101384.25;;;21.16;52.64
46534;BME280;32260;52.008;4.752;2022-10-22T12:38:53;101393.97;;;21.19;52.19
46534;BME280;32260;52.008;4.752;2022-10-22T12:41:20;101377.03;;;21.17;52.88
46534;BME280;32260;52.008;4.752;2022-10-22T12:43:47;101379.63;;;21.03;52.98
46534;BME280;32260;52.008;4.752;2022-10-22T12:46:14;101394.56;;;20.92;53.17
46534;BME280;32260;52.008;4.752;2022-10-22T12:48:43;101387.06;;;20.81;53.82
46534;BME280;32260;52.008;4.752;2022-10-22T12:51:16;101385.00;;;20.87;54.15
46534;BME280;32260;52.008;4.752;2022-10-22T12:53:47;101383.53;;;20.97;55.05
46534;BME280;32260;52.008;4.752;2022-10-22T12:56:20;101383.97;;;21.05;54.18
46534;BME280;32260;52.008;4.752;2022-10-22T12:59:00;101379.78;;;20.99;53.84
46534;BME280;32260;52.008;4.752;2022-10-22T13:01:31;101377.06;;;20.83;53.79
46534;BME280;32260;52.008;4.752;2022-10-22T13:07:16;101381.59;;;20.83;54.39
46534;BME280;32260;52.008;4.752;2022-10-22T13:09:59;101372.09;;;20.76;55.16
46534;BME280;32260;52.008;4.752;2022-10-22T13:12:26;101376.78;;;20.72;55.11
46534;BME280;32260;52.008;4.752;2022-10-22T13:14:53;101381.94;;;20.77;54.81
46534;BME280;32260;52.008;4.752;2022-10-22T13:18:00;101388.97;;;20.79;54.70
46534;BME280;32260;52.008;4.752;2022-10-22T13:20:22;101381.50;;;20.84;54.26
46534;BME280;32260;52.008;4.752;2022-10-22T13:23:05;101380.47;;;20.87;54.44
46534;BME280;32260;52.008;4.752;2022-10-22T13:25:42;101381.13;;;20.75;54.07
46534;BME280;32260;52.008;4.752;2022-10-22T13:30:59;101383.44;;;20.82;52.86
46534;BME280;32260;52.008;4.752;2022-10-22T13:33:31;101379.75;;;20.83;53.45
46534;BME280;32260;52.008;4.752;2022-10-22T13:35:58;101374.84;;;20.92;53.64
46534;BME280;32260;52.008;4.752;2022-10-22T13:38:25;101382.50;;;20.99;52.92
46534;BME280;32260;52.008;4.752;2022-10-22T13:40:52;101395.47;;;21.09;53.33
46534;BME280;32260;52.008;4.752;2022-10-22T13:43:19;101378.97;;;21.15;52.65
46534;BME280;32260;52.008;4.752;2022-10-22T13:45:47;101378.75;;;21.18;52.38
46534;BME280;32260;52.008;4.752;2022-10-22T13:48:19;101375.22;;;21.17;51.88
46534;BME280;32260;52.008;4.752;2022-10-22T13:50:47;101376.59;;;21.09;51.68
46534;BME280;32260;52.008;4.752;2022-10-22T13:53:18;101374.59;;;20.96;50.70
46534;BME280;32260;52.008;4.752;2022-10-22T13:55:45;101382.22;;;20.88;51.39
46534;BME280;32260;52.008;4.752;2022-10-22T13:58:14;101384.81;;;20.74;51.75
46534;BME280;32260;52.008;4.752;2022-10-22T14:00:47;101392.81;;;20.58;52.08
46534;BME280;32260;52.008;4.752;2022-10-22T14:03:18;101405.03;;;20.47;52.57
46534;BME280;32260;52.008;4.752;2022-10-22T14:05:46;101391.81;;;20.43;53.14
46534;BME280;32260;52.008;4.752;2022-10-22T14:08:19;101401.13;;;20.35;53.68
46534;BME280;32260;52.008;4.752;2022-10-22T14:10:46;101397.28;;;20.41;53.89
46534;BME280;32260;52.008;4.752;2022-10-22T14:13:13;101402.38;;;20.46;53.75
46534;BME280;32260;52.008;4.752;2022-10-22T14:15:39;101409.22;;;20.35;53.46
46534;BME280;32260;52.008;4.752;2022-10-22T14:18:07;101408.97;;;20.40;53.83
46534;BME280;32260;52.008;4.752;2022-10-22T14:20:37;101413.56;;;20.38;53.84
46534;BME280;32260;52.008;4.752;2022-10-22T14:23:12;101411.03;;;20.35;53.22
46534;BME280;32260;52.008;4.752;2022-10-22T14:25:40;101410.25;;;20.33;52.86
46534;BME280;32260;52.008;4.752;2022-10-22T14:28:09;101411.91;;;20.35;53.65
46534;BME280;32260;52.008;4.752;2022-10-22T14:30:35;101415.00;;;20.28;53.59
46534;BME280;32260;52.008;4.752;2022-10-22T14:33:05;101411.81;;;20.19;54.00
46534;BME280;32260;52.008;4.752;2022-10-22T14:35:35;101412.06;;;20.15;54.40
46534;BME280;32260;52.008;4.752;2022-10-22T14:38:01;101416.41;;;20.17;54.18
46534;BME280;32260;52.008;4.752;2022-10-22T14:40:27;101407.25;;;20.22;54.81
46534;BME280;32260;52.008;4.752;2022-10-22T14:42:53;101413.06;;;20.30;54.35
46534;BME280;32260;52.008;4.752;2022-10-22T14:45:23;101418.84;;;20.40;54.57
46534;BME280;32260;52.008;4.752;2022-10-22T14:47:50;101411.66;;;20.40;53.97
46534;BME280;32260;52.008;4.752;2022-10-22T14:50:17;101414.75;;;20.32;54.18
46534;BME280;32260;52.008;4.752;2022-10-22T14:52:43;101415.72;;;20.31;54.71
46534;BME280;32260;52.008;4.752;2022-10-22T14:55:11;101420.13;;;20.32;54.67